Time;durP1;ratioP1;P1;durP2;ratioP2;P2;SDS_P1;SDS_P2;PMS_P1;PMS_P2;Temp;Humidity;BMP_temperature;BMP_pressure;BME280_temperature;BME280_humidity;BME280_pressure;Samples;Min_cycle;Max_cycle;Signal;HPM_P1;HPM_P2
2022/12/03 00:01:42;;;;;;;93.22;35.63;;;0.80;99.90;;;;;;5097569;28;20503;-42
2022/12/03 00:04:08;;;;;;;102.43;38.63;;;0.90;99.90;;;;;;5102937;28;20032;-42
2022/12/03 00:06:34;;;;;;;103.63;37.28;;;0.80;99.90;;;;;;5109266;28;20048;-42
2022/12/03 00:08:59;;;;;;;97.25;36.08;;;0.80;99.90;;;;;;5103309;28;20016;-42
2022/12/03 00:11:25;;;;;;;103.60;37.50;;;0.80;99.90;;;;;;5109006;28;20380;-43
2022/12/03 00:13:51;;;;;;;95.97;35.80;;;0.80;99.90;;;;;;5085131;28;20028;-42
2022/12/03 00:16:16;;;;;;;97.10;34.75;;;0.90;99.90;;;;;;5093983;28;20023;-42
2022/12/03 00:18:42;;;;;;;100.32;36.40;;;0.90;99.90;;;;;;5111940;28;20028;-43
2022/12/03 00:21:08;;;;;;;101.90;37.65;;;0.90;99.90;;;;;;5111295;28;20023;-43
2022/12/03 00:23:34;;;;;;;102.15;37.20;;;0.90;99.90;;;;;;5112060;28;20074;-46
2022/12/03 00:25:59;;;;;;;97.25;35.92;;;0.90;99.90;;;;;;5111406;28;20456;-42
2022/12/03 00:28:25;;;;;;;105.30;35.92;;;0.90;99.90;;;;;;5093233;28;20024;-43
2022/12/03 00:30:52;;;;;;;101.28;35.75;;;0.80;99.90;;;;;;5111136;28;20030;-42
2022/12/03 00:33:19;;;;;;;90.57;35.40;;;0.80;99.90;;;;;;5111344;28;20024;-42
2022/12/03 00:35:45;;;;;;;100.07;35.53;;;0.80;99.90;;;;;;5111639;28;20024;-43
2022/12/03 00:38:10;;;;;;;92.55;37.25;;;0.80;99.90;;;;;;5111524;28;20372;-43
2022/12/03 00:40:36;;;;;;;85.32;33.85;;;0.80;99.90;;;;;;5110549;28;20032;-43
2022/12/03 00:43:01;;;;;;;103.72;35.60;;;0.80;99.90;;;;;;5101841;28;20035;-42
2022/12/03 00:45:27;;;;;;;97.03;37.53;;;0.80;99.90;;;;;;5093155;28;20130;-42
2022/12/03 00:47:52;;;;;;;105.75;35.67;;;0.80;99.90;;;;;;5111281;28;20022;-42
2022/12/03 00:50:18;;;;;;;91.20;35.38;;;0.80;99.90;;;;;;5111078;28;20067;-43
2022/12/03 00:52:43;;;;;;;94.97;34.83;;;0.80;99.90;;;;;;5111330;28;20016;-43
2022/12/03 00:55:09;;;;;;;92.10;34.25;;;0.80;99.90;;;;;;5110907;28;20472;-41
2022/12/03 00:57:34;;;;;;;95.95;35.33;;;0.80;99.90;;;;;;5092897;28;20020;-42
2022/12/03 01:00:00;;;;;;;86.38;32.28;;;0.80;99.90;;;;;;5111166;28;20031;-41
2022/12/03 01:02:25;;;;;;;93.15;33.38;;;0.80;99.90;;;;;;5110438;28;20433;-43
2022/12/03 01:04:51;;;;;;;92.60;34.67;;;0.70;99.90;;;;;;5110689;28;20032;-43
2022/12/03 01:07:16;;;;;;;84.03;31.60;;;0.70;99.90;;;;;;5110781;28;20660;-42
2022/12/03 01:09:42;;;;;;;87.47;35.28;;;0.70;99.90;;;;;;5109937;28;20024;-42
2022/12/03 01:12:07;;;;;;;80.95;31.35;;;0.70;99.90;;;;;;5098799;28;20016;-45
2022/12/03 01:14:33;;;;;;;88.15;33.58;;;0.70;99.90;;;;;;5104541;28;20110;-42
2022/12/03 01:16:58;;;;;;;85.95;31.17;;;0.70;99.90;;;;;;5110616;28;20429;-42
2022/12/03 01:19:24;;;;;;;89.88;33.42;;;0.70;99.90;;;;;;5105138;28;20619;-42
2022/12/03 01:21:51;;;;;;;91.75;30.75;;;0.70;99.90;;;;;;5080048;28;20393;-42
2022/12/03 01:24:18;;;;;;;85.28;31.63;;;0.70;99.90;;;;;;5110396;28;20023;-44
2022/12/03 01:26:44;;;;;;;77.50;30.88;;;0.70;99.90;;;;;;5099649;28;20103;-42
2022/12/03 01:29:09;;;;;;;89.38;35.22;;;0.70;99.90;;;;;;5109314;28;20085;-42
2022/12/03 01:34:19;;;;;;;90.53;32.55;;;0.60;99.90;;;;;;5094798;28;20076;-42
2022/12/03 01:36:45;;;;;;;86.38;30.85;;;0.60;99.90;;;;;;5109731;28;20032;-42
2022/12/03 01:39:10;;;;;;;85.07;32.08;;;0.60;99.90;;;;;;5109569;28;20130;-42
2022/12/03 01:41:36;;;;;;;83.43;31.38;;;0.60;99.90;;;;;;5110021;28;20310;-42
2022/12/03 01:44:11;;;;;;;89.88;33.13;;;0.60;99.90;;;;;;5109773;28;20476;-43
2022/12/03 01:46:43;;;;;;;92.82;34.92;;;0.60;99.90;;;;;;5110212;28;20046;-42
2022/12/03 01:49:17;;;;;;;85.22;31.92;;;0.50;99.90;;;;;;5109446;28;20019;-43
2022/12/03 01:51:43;;;;;;;86.82;32.38;;;0.50;99.90;;;;;;5109764;28;20071;-42
2022/12/03 01:54:17;;;;;;;94.78;32.35;;;0.50;99.90;;;;;;5109828;28;20024;-41
2022/12/03 01:56:43;;;;;;;84.82;31.38;;;0.50;99.90;;;;;;5109856;28;20554;-42
2022/12/03 01:59:17;;;;;;;108.90;38.47;;;0.50;99.90;;;;;;5109286;28;20419;-41
2022/12/03 02:01:43;;;;;;;104.82;37.28;;;0.50;99.90;;;;;;5106291;28;20024;-42
2022/12/03 02:04:12;;;;;;;101.18;33.97;;;0.50;99.90;;;;;;5091778;28;20035;-44
2022/12/03 02:06:37;;;;;;;102.03;37.83;;;0.50;99.90;;;;;;5094012;28;20024;-42
2022/12/03 02:09:07;;;;;;;102.90;37.35;;;0.40;99.90;;;;;;5089397;28;20058;-42
2022/12/03 02:11:39;;;;;;;109.93;38.83;;;0.40;99.90;;;;;;5093966;28;20480;-42
2022/12/03 02:14:11;;;;;;;117.10;43.33;;;0.40;99.90;;;;;;5100620;28;20032;-42
2022/12/03 02:16:37;;;;;;;106.57;37.85;;;0.40;99.90;;;;;;5109857;28;20078;-42
2022/12/03 02:19:07;;;;;;;113.25;41.78;;;0.40;99.90;;;;;;5105832;28;20023;-42
2022/12/03 02:21:44;;;;;;;104.80;37.03;;;0.40;99.90;;;;;;5103469;28;20099;-43
2022/12/03 02:24:28;;;;;;;103.03;37.22;;;0.40;99.90;;;;;;5106658;28;20023;-42
2022/12/03 02:26:54;;;;;;;108.38;36.70;;;0.40;99.90;;;;;;5100279;28;20036;-43
2022/12/03 02:29:21;;;;;;;102.57;38.70;;;0.40;99.90;;;;;;5100254;28;20027;-42
2022/12/03 02:31:47;;;;;;;101.50;37.97;;;0.40;99.90;;;;;;5109476;28;20047;-42
2022/12/03 02:34:39;;;;;;;113.35;39.38;;;0.40;99.90;;;;;;5107895;28;20104;-41
2022/12/03 02:37:08;;;;;;;117.20;39.30;;;0.40;99.90;;;;;;5108193;28;20038;-42
2022/12/03 02:39:37;;;;;;;104.45;36.75;;;0.40;99.90;;;;;;5108709;28;20408;-41
2022/12/03 02:44:48;;;;;;;106.93;38.70;;;0.40;99.90;;;;;;5109458;28;20038;-42
2022/12/03 02:47:14;;;;;;;114.78;44.45;;;0.40;99.90;;;;;;5109135;28;20020;-41
2022/12/03 02:49:40;;;;;;;120.10;43.78;;;0.50;99.90;;;;;;5107509;28;20259;-41
2022/12/03 02:52:06;;;;;;;112.30;39.70;;;0.50;99.90;;;;;;5109547;28;20024;-41
2022/12/03 02:54:31;;;;;;;133.13;45.63;;;0.50;99.90;;;;;;5109103;28;20051;-41
2022/12/03 02:56:57;;;;;;;121.25;44.75;;;0.40;99.90;;;;;;5096861;28;20066;-42
2022/12/03 02:59:23;;;;;;;121.82;43.97;;;0.40;99.90;;;;;;5093722;28;20036;-42
2022/12/03 03:01:48;;;;;;;119.05;41.47;;;0.50;99.90;;;;;;5093686;28;20032;-41
2022/12/03 03:04:14;;;;;;;119.32;43.17;;;0.40;99.90;;;;;;5068089;28;20024;-41
2022/12/03 03:06:40;;;;;;;123.47;44.85;;;0.40;99.90;;;;;;5068271;28;20032;-41
2022/12/03 03:09:06;;;;;;;119.95;43.50;;;0.40;99.90;;;;;;5085323;28;20039;-41
2022/12/03 03:11:31;;;;;;;122.80;45.00;;;0.40;99.90;;;;;;5102630;28;20024;-42
2022/12/03 03:13:57;;;;;;;116.22;44.30;;;0.40;99.90;;;;;;5107943;28;20031;-41
2022/12/03 03:16:22;;;;;;;114.43;41.17;;;0.40;99.90;;;;;;5109192;28;20028;-41
2022/12/03 03:18:48;;;;;;;114.30;42.45;;;0.40;99.90;;;;;;5091299;28;20468;-41
2022/12/03 03:21:13;;;;;;;115.28;40.70;;;0.40;99.90;;;;;;5099620;28;20055;-41
2022/12/03 03:23:39;;;;;;;113.95;41.60;;;0.40;99.90;;;;;;5108588;28;20032;-41
2022/12/03 03:26:07;;;;;;;121.32;43.30;;;0.40;99.90;;;;;;5108179;28;20496;-41
2022/12/03 03:28:39;;;;;;;122.32;46.58;;;0.40;99.90;;;;;;5093352;28;20365;-41
2022/12/03 03:31:07;;;;;;;132.63;45.42;;;0.30;99.90;;;;;;5109164;28;20012;-41
2022/12/03 03:33:32;;;;;;;119.30;43.47;;;0.30;99.90;;;;;;5112827;28;20501;-41
2022/12/03 03:35:59;;;;;;;121.78;44.17;;;0.30;99.90;;;;;;5096457;28;20103;-42
2022/12/03 03:38:26;;;;;;;128.93;46.10;;;0.30;99.90;;;;;;5092721;28;20033;-42
2022/12/03 03:40:55;;;;;;;117.75;44.67;;;0.30;99.90;;;;;;5090007;28;20050;-42
2022/12/03 03:43:22;;;;;;;109.97;42.60;;;0.30;99.90;;;;;;5079629;28;20036;-42
2022/12/03 03:45:50;;;;;;;118.53;44.47;;;0.30;99.90;;;;;;5084934;28;20044;-42
2022/12/03 03:48:19;;;;;;;123.47;43.38;;;0.30;99.90;;;;;;5089053;28;20020;-42
2022/12/03 03:50:45;;;;;;;124.10;45.97;;;0.30;99.90;;;;;;5091760;28;20016;-41
2022/12/03 03:53:12;;;;;;;116.20;43.10;;;0.30;99.90;;;;;;5090684;28;20027;-41
2022/12/03 03:55:38;;;;;;;114.20;42.97;;;0.30;99.90;;;;;;5091678;28;20693;-42
2022/12/03 03:58:04;;;;;;;101.72;38.33;;;0.30;99.90;;;;;;5092038;28;20031;-42
2022/12/03 04:00:31;;;;;;;114.35;42.67;;;0.20;99.90;;;;;;5089953;28;20024;-42
2022/12/03 04:02:56;;;;;;;113.18;42.13;;;0.30;99.90;;;;;;5088867;28;20031;-42
2022/12/03 04:05:23;;;;;;;110.50;41.28;;;0.30;99.90;;;;;;5091802;28;20118;-41
2022/12/03 04:07:49;;;;;;;123.65;42.25;;;0.30;99.90;;;;;;5093942;28;20586;-41
2022/12/03 04:13:00;;;;;;;117.78;41.03;;;0.30;99.90;;;;;;5093464;28;20398;-42
2022/12/03 04:15:25;;;;;;;103.80;42.22;;;0.30;99.90;;;;;;5104886;28;20032;-41
2022/12/03 04:20:37;;;;;;;112.57;41.67;;;0.30;99.90;;;;;;5102419;28;20516;-41
2022/12/03 04:23:03;;;;;;;109.85;43.20;;;0.30;99.90;;;;;;5110117;28;20019;-42
2022/12/03 04:36:45;;;;;;;106.32;37.72;;;0.30;99.90;;;;;;5084293;28;20085;-42
2022/12/03 04:39:14;;;;;;;122.82;40.20;;;0.20;99.90;;;;;;5070450;28;20481;-42
2022/12/03 04:41:40;;;;;;;109.70;41.20;;;0.20;99.90;;;;;;5076163;28;20039;-42
2022/12/03 04:46:50;;;;;;;113.43;40.33;;;0.10;99.90;;;;;;5084262;28;20055;-42
2022/12/03 04:49:18;;;;;;;116.07;43.90;;;0.20;99.90;;;;;;5079164;28;20013;-46
2022/12/03 04:51:44;;;;;;;101.93;38.25;;;0.20;99.90;;;;;;5090666;28;20057;-41
2022/12/03 04:54:10;;;;;;;118.22;42.75;;;0.20;99.90;;;;;;5089494;28;20475;-41
2022/12/03 04:56:41;;;;;;;117.13;41.47;;;0.20;99.90;;;;;;5090961;28;20560;-43
2022/12/03 04:59:07;;;;;;;105.18;38.95;;;0.20;99.90;;;;;;5090358;28;20024;-42
2022/12/03 05:01:33;;;;;;;110.03;40.50;;;0.20;99.90;;;;;;5089280;28;20276;-42
2022/12/03 05:04:02;;;;;;;103.03;38.55;;;0.20;99.90;;;;;;5090408;28;20377;-41
2022/12/03 05:06:28;;;;;;;106.82;39.75;;;0.30;99.90;;;;;;5089021;28;20008;-42
2022/12/03 05:08:54;;;;;;;104.78;39.67;;;0.20;99.90;;;;;;5089585;28;20058;-42
2022/12/03 05:11:20;;;;;;;115.25;41.90;;;0.30;99.90;;;;;;5085961;28;20051;-42
2022/12/03 05:13:45;;;;;;;110.65;39.17;;;0.20;99.90;;;;;;5092073;28;20058;-42
2022/12/03 05:16:11;;;;;;;108.03;39.85;;;0.20;99.90;;;;;;5088522;28;20032;-42
2022/12/03 05:18:39;;;;;;;111.60;40.83;;;0.10;99.90;;;;;;5087780;28;20024;-42
2022/12/03 05:21:05;;;;;;;109.90;40.95;;;0.10;99.90;;;;;;5101155;28;20388;-41
2022/12/03 05:23:31;;;;;;;109.15;41.80;;;0.10;99.90;;;;;;5097383;28;20458;-41
2022/12/03 05:26:00;;;;;;;112.35;42.00;;;0.10;99.90;;;;;;5096733;28;20038;-42
2022/12/03 05:28:26;;;;;;;104.20;42.15;;;0.10;99.90;;;;;;5108681;28;20561;-42
2022/12/03 05:30:57;;;;;;;120.20;41.35;;;0.10;99.90;;;;;;5100914;28;20096;-42
2022/12/03 05:33:26;;;;;;;115.13;43.13;;;0.10;99.90;;;;;;5103483;28;20038;-42
2022/12/03 05:35:52;;;;;;;111.07;41.78;;;0.10;99.90;;;;;;5103538;28;20028;-42
2022/12/03 05:38:18;;;;;;;106.15;40.03;;;0.10;99.90;;;;;;5100292;28;20023;-42
2022/12/03 05:40:44;;;;;;;110.50;41.95;;;0.10;99.90;;;;;;5108425;28;20495;-41
2022/12/03 05:43:09;;;;;;;119.35;44.38;;;0.10;99.90;;;;;;5110212;28;20031;-40
2022/12/03 05:45:40;;;;;;;116.32;41.00;;;0.10;99.90;;;;;;5110145;28;20034;-40
2022/12/03 05:48:08;;;;;;;124.50;42.70;;;0.10;99.90;;;;;;5096830;28;20407;-41
2022/12/03 05:50:35;;;;;;;119.35;43.08;;;0.10;99.90;;;;;;5102570;28;20053;-41
2022/12/03 05:53:01;;;;;;;114.78;44.72;;;0.10;99.90;;;;;;5100458;28;20023;-41
2022/12/03 05:55:28;;;;;;;123.57;45.97;;;0.10;99.90;;;;;;5101402;28;20024;-41
2022/12/03 05:57:53;;;;;;;118.38;42.67;;;0.10;99.90;;;;;;5109835;28;20027;-40
2022/12/03 06:00:26;;;;;;;115.55;41.40;;;0.10;99.90;;;;;;5107994;28;20480;-41
2022/12/03 06:02:52;;;;;;;118.63;42.35;;;0.10;99.90;;;;;;5093037;28;20097;-43
2022/12/03 06:05:19;;;;;;;109.03;41.47;;;0.10;99.90;;;;;;5100653;28;20468;-42
2022/12/03 06:07:46;;;;;;;114.07;43.30;;;0.10;99.90;;;;;;5109735;28;20058;-41
2022/12/03 06:10:14;;;;;;;124.35;43.95;;;0.10;99.90;;;;;;5086559;28;20023;-42
2022/12/03 06:12:41;;;;;;;116.45;43.20;;;0.10;99.90;;;;;;5099067;27;20036;-41
2022/12/03 06:15:07;;;;;;;113.38;44.17;;;0.10;99.90;;;;;;5085533;28;20027;-40
2022/12/03 06:17:33;;;;;;;119.90;44.65;;;0.10;99.90;;;;;;5094803;28;20145;-42
2022/12/03 06:19:59;;;;;;;109.93;43.67;;;0.10;99.90;;;;;;5081632;28;20562;-41
2022/12/03 06:22:26;;;;;;;122.47;46.47;;;0.00;99.90;;;;;;5075772;28;20021;-41
2022/12/03 06:24:51;;;;;;;108.47;42.67;;;0.00;99.90;;;;;;5092892;28;20056;-41
2022/12/03 06:27:17;;;;;;;126.53;48.70;;;0.00;99.90;;;;;;5089181;28;20507;-40
2022/12/03 06:29:43;;;;;;;117.50;45.45;;;-0.10;99.90;;;;;;5088519;28;20409;-40
2022/12/03 06:32:09;;;;;;;122.43;46.58;;;-0.10;99.90;;;;;;5087604;28;20085;-40
2022/12/03 06:34:35;;;;;;;118.07;44.38;;;-0.10;99.90;;;;;;5088968;28;20050;-40
2022/12/03 06:37:00;;;;;;;127.63;46.95;;;0.00;99.90;;;;;;5087656;28;20427;-40
2022/12/03 06:39:26;;;;;;;121.72;46.03;;;0.00;99.90;;;;;;5086705;28;20480;-40
2022/12/03 06:41:52;;;;;;;134.10;47.05;;;0.00;99.90;;;;;;5091223;28;20033;-40
2022/12/03 06:44:17;;;;;;;120.72;44.45;;;0.00;99.90;;;;;;5093954;28;20027;-41
2022/12/03 06:46:43;;;;;;;134.45;47.78;;;0.00;99.90;;;;;;5077838;28;20020;-40
2022/12/03 06:49:09;;;;;;;119.10;45.28;;;0.00;99.90;;;;;;5077165;28;20021;-40
2022/12/03 06:51:35;;;;;;;123.82;46.50;;;0.00;99.90;;;;;;5078349;28;20058;-40
2022/12/03 06:54:04;;;;;;;117.15;45.80;;;0.00;99.90;;;;;;5068715;28;20040;-40
2022/12/03 06:56:30;;;;;;;125.18;45.90;;;0.00;99.90;;;;;;5068393;28;20371;-40
2022/12/03 06:58:56;;;;;;;133.93;46.83;;;0.00;99.90;;;;;;5095407;28;20024;-40
2022/12/03 07:01:22;;;;;;;121.72;45.60;;;0.00;99.90;;;;;;5111070;28;20032;-40
2022/12/03 07:03:48;;;;;;;124.13;46.75;;;0.00;99.90;;;;;;5113733;28;20020;-41
2022/12/03 07:06:14;;;;;;;118.15;45.03;;;-0.10;99.90;;;;;;5113389;28;20525;-41
2022/12/03 07:08:39;;;;;;;130.65;47.55;;;0.00;99.90;;;;;;5111998;28;20102;-41
2022/12/03 07:11:29;;;;;;;126.05;47.05;;;0.00;99.90;;;;;;5112844;28;20020;-41
2022/12/03 07:13:54;;;;;;;117.18;43.65;;;0.00;99.90;;;;;;5097707;28;20492;-41
2022/12/03 07:16:19;;;;;;;116.40;44.10;;;0.00;99.90;;;;;;5111863;28;20556;-41
2022/12/03 07:18:45;;;;;;;121.50;44.78;;;0.00;99.90;;;;;;5111877;28;20397;-40
2022/12/03 07:21:12;;;;;;;115.25;45.40;;;0.10;99.90;;;;;;5083850;28;20063;-41
2022/12/03 07:23:37;;;;;;;115.18;45.00;;;0.10;99.90;;;;;;5107737;28;20020;-48
2022/12/03 07:26:03;;;;;;;126.07;47.10;;;0.10;99.90;;;;;;5099572;28;20012;-41
2022/12/03 07:28:28;;;;;;;130.38;47.85;;;0.10;99.90;;;;;;5106488;28;20435;-41
2022/12/03 07:30:54;;;;;;;112.35;46.78;;;0.10;99.90;;;;;;5110605;28;20024;-41
2022/12/03 07:33:20;;;;;;;122.63;47.53;;;0.00;99.90;;;;;;5110956;28;20030;-42
2022/12/03 07:35:45;;;;;;;110.32;44.38;;;0.00;99.90;;;;;;5112030;28;20012;-42
2022/12/03 07:38:11;;;;;;;121.72;46.30;;;0.00;99.90;;;;;;5112343;28;20024;-41
2022/12/03 07:40:37;;;;;;;105.30;43.80;;;0.00;99.90;;;;;;5105131;28;20103;-41
2022/12/03 07:43:03;;;;;;;123.30;46.38;;;0.00;99.90;;;;;;5103586;28;20396;-42
2022/12/03 07:45:28;;;;;;;112.90;46.03;;;0.00;99.90;;;;;;5112212;28;20023;-41
2022/12/03 07:47:54;;;;;;;125.68;47.38;;;0.00;99.90;;;;;;5111008;28;20019;-41
2022/12/03 07:50:20;;;;;;;120.25;48.53;;;0.00;99.90;;;;;;5111978;28;20028;-41
2022/12/03 07:52:45;;;;;;;117.25;46.40;;;0.00;99.90;;;;;;5112356;28;20020;-44
2022/12/03 07:55:12;;;;;;;116.47;45.60;;;0.00;99.90;;;;;;5112241;28;20046;-41
2022/12/03 07:57:37;;;;;;;115.97;47.75;;;0.00;99.90;;;;;;5112340;28;20047;-41
2022/12/03 08:00:05;;;;;;;116.70;47.70;;;0.10;99.90;;;;;;5111995;28;20030;-40
2022/12/03 08:02:30;;;;;;;111.38;45.20;;;0.00;99.90;;;;;;5112355;28;20054;-41
2022/12/03 08:04:56;;;;;;;114.93;46.83;;;0.10;99.90;;;;;;5112389;28;20442;-41
2022/12/03 08:07:22;;;;;;;127.53;47.30;;;0.00;99.90;;;;;;5097131;28;20018;-41
2022/12/03 08:09:48;;;;;;;114.50;48.65;;;0.10;99.90;;;;;;5103086;28;20026;-41
2022/12/03 08:12:17;;;;;;;114.63;45.65;;;0.10;99.90;;;;;;5108322;28;20020;-41
2022/12/03 08:14:43;;;;;;;117.40;48.45;;;0.10;99.90;;;;;;5093899;28;20081;-41
2022/12/03 08:17:11;;;;;;;111.13;44.95;;;0.10;99.90;;;;;;5111626;28;20024;-41
2022/12/03 08:19:37;;;;;;;128.07;47.88;;;0.10;99.90;;;;;;5111422;28;20062;-41
2022/12/03 08:22:12;;;;;;;115.68;46.85;;;0.10;99.90;;;;;;5112144;28;20452;-42
2022/12/03 08:24:38;;;;;;;115.95;46.55;;;0.10;99.90;;;;;;5110498;28;20019;-41
2022/12/03 08:27:16;;;;;;;122.72;46.70;;;0.10;99.90;;;;;;5111863;28;20084;-40
2022/12/03 08:29:42;;;;;;;111.03;45.70;;;0.10;99.90;;;;;;5111269;28;20383;-41
2022/12/03 08:32:11;;;;;;;108.30;45.40;;;0.20;99.90;;;;;;5111758;28;20019;-41
2022/12/03 08:34:43;;;;;;;106.95;46.55;;;0.10;99.90;;;;;;5110423;28;20119;-40
2022/12/03 08:37:16;;;;;;;108.93;44.60;;;0.10;99.90;;;;;;5110433;28;20110;-41
2022/12/03 08:39:45;;;;;;;114.50;47.40;;;0.20;99.90;;;;;;5111064;28;20032;-40
2022/12/03 08:42:42;;;;;;;128.05;50.40;;;0.20;99.90;;;;;;5111730;28;20092;-41
2022/12/03 08:45:30;;;;;;;121.00;48.42;;;0.10;99.90;;;;;;5099128;28;20069;-40
2022/12/03 08:48:04;;;;;;;131.43;50.17;;;0.10;99.90;;;;;;5110247;28;20019;-41
2022/12/03 08:50:32;;;;;;;116.68;47.63;;;0.10;99.90;;;;;;5110909;28;20019;-41
2022/12/03 08:53:33;;;;;;;119.18;47.47;;;0.10;99.90;;;;;;5111253;28;20031;-41
2022/12/03 08:56:23;;;;;;;116.88;49.20;;;0.10;99.90;;;;;;5110181;28;20126;-41
2022/12/03 08:58:59;;;;;;;111.47;47.83;;;0.10;99.90;;;;;;5110343;28;20032;-41
2022/12/03 09:01:44;;;;;;;117.82;47.30;;;0.10;99.90;;;;;;5110747;28;20547;-41
2022/12/03 09:04:30;;;;;;;119.28;47.92;;;0.10;99.90;;;;;;5111243;28;20065;-41
2022/12/03 09:06:56;;;;;;;113.18;45.88;;;0.10;99.90;;;;;;5099954;28;20460;-41
2022/12/03 09:09:23;;;;;;;114.50;46.28;;;0.10;99.90;;;;;;5110386;28;20464;-40
2022/12/03 09:11:52;;;;;;;119.72;47.35;;;0.10;99.90;;;;;;5110929;28;20024;-41
2022/12/03 09:14:22;;;;;;;124.40;48.47;;;0.10;99.90;;;;;;5096325;28;20024;-41
2022/12/03 09:16:50;;;;;;;105.83;46.30;;;0.10;99.90;;;;;;5107299;28;20019;-41
2022/12/03 09:19:16;;;;;;;118.38;47.38;;;0.10;99.90;;;;;;5098246;28;20312;-44
2022/12/03 09:21:41;;;;;;;118.07;46.13;;;0.20;99.90;;;;;;5106343;28;20467;-42
2022/12/03 09:24:07;;;;;;;117.38;45.28;;;0.20;99.90;;;;;;5102460;28;20057;-41
2022/12/03 09:26:33;;;;;;;113.05;47.67;;;0.20;99.90;;;;;;5103510;28;20019;-44
2022/12/03 09:28:59;;;;;;;111.88;46.05;;;0.20;99.90;;;;;;5110533;28;20015;-41
2022/12/03 09:31:25;;;;;;;108.10;44.40;;;0.20;99.90;;;;;;5110194;28;20403;-41
2022/12/03 09:33:50;;;;;;;113.97;48.30;;;0.20;99.90;;;;;;5110137;28;20059;-42
2022/12/03 09:36:16;;;;;;;106.57;44.65;;;0.30;99.90;;;;;;5110834;28;20031;-46
2022/12/03 09:38:41;;;;;;;107.20;44.75;;;0.30;99.90;;;;;;5108932;28;20431;-42
2022/12/03 09:41:08;;;;;;;110.05;45.83;;;0.30;99.90;;;;;;5110049;28;20023;-42
2022/12/03 09:43:34;;;;;;;104.68;45.42;;;0.30;99.90;;;;;;5109738;28;20034;-42
2022/12/03 09:46:00;;;;;;;114.95;48.08;;;0.40;99.90;;;;;;5110220;28;20035;-43
2022/12/03 09:48:26;;;;;;;112.50;47.92;;;0.40;99.90;;;;;;5109077;28;20057;-43
2022/12/03 09:50:51;;;;;;;115.38;47.97;;;0.30;99.90;;;;;;5108479;28;20133;-42
2022/12/03 09:53:20;;;;;;;118.65;47.13;;;0.40;99.90;;;;;;5106019;28;20110;-43
2022/12/03 09:55:47;;;;;;;99.32;44.00;;;0.40;99.90;;;;;;5100182;28;20051;-42
2022/12/03 09:58:15;;;;;;;111.40;47.65;;;0.40;99.90;;;;;;5108371;28;20028;-42
2022/12/03 10:00:45;;;;;;;109.95;45.78;;;0.40;99.90;;;;;;5108195;28;20031;-42
2022/12/03 10:03:14;;;;;;;113.63;44.65;;;0.40;99.90;;;;;;5108518;28;20192;-42
2022/12/03 10:05:39;;;;;;;105.85;45.50;;;0.40;99.90;;;;;;5109842;28;20036;-43
2022/12/03 10:08:20;;;;;;;113.32;46.55;;;0.40;99.90;;;;;;5092236;28;20030;-40
2022/12/03 10:10:48;;;;;;;116.35;46.92;;;0.50;99.90;;;;;;5088867;28;20107;-43
2022/12/03 10:13:28;;;;;;;115.97;47.45;;;0.50;99.90;;;;;;5088664;28;20020;-41
2022/12/03 10:15:57;;;;;;;103.40;44.22;;;0.50;99.90;;;;;;5101152;28;20020;-41
2022/12/03 10:18:29;;;;;;;111.75;45.75;;;0.60;99.90;;;;;;5109671;28;20027;-41
2022/12/03 10:20:55;;;;;;;111.07;46.63;;;0.60;99.90;;;;;;5108880;28;20103;-41
2022/12/03 10:23:29;;;;;;;108.63;46.67;;;0.60;99.90;;;;;;5092055;28;20047;-41
2022/12/03 10:25:55;;;;;;;103.10;45.22;;;0.60;99.90;;;;;;5100933;28;20019;-41
2022/12/03 10:28:35;;;;;;;111.85;47.38;;;0.60;99.90;;;;;;5109111;28;20034;-42
2022/12/03 10:31:03;;;;;;;111.25;49.33;;;0.60;99.90;;;;;;5090767;28;20034;-42
2022/12/03 10:33:38;;;;;;;111.78;46.20;;;0.70;99.90;;;;;;5107791;28;20020;-41
2022/12/03 10:36:24;;;;;;;100.68;44.10;;;0.60;99.90;;;;;;5108956;28;20152;-41
2022/12/03 10:39:07;;;;;;;105.00;46.33;;;0.70;99.90;;;;;;5107666;28;20058;-43
2022/12/03 10:41:32;;;;;;;106.85;45.97;;;0.70;99.90;;;;;;5107661;28;20016;-42
2022/12/03 10:44:18;;;;;;;103.55;46.78;;;0.70;99.90;;;;;;5101810;28;20050;-43
2022/12/03 10:47:09;;;;;;;97.43;45.25;;;0.70;99.90;;;;;;5075554;28;20445;-42
2022/12/03 10:49:35;;;;;;;98.85;45.53;;;0.70;99.90;;;;;;5087303;28;20454;-43
2022/12/03 10:52:01;;;;;;;98.47;43.55;;;0.70;99.90;;;;;;5087632;28;20027;-42
2022/12/03 10:54:28;;;;;;;107.53;44.50;;;0.70;99.90;;;;;;5090386;28;20461;-42
2022/12/03 10:56:54;;;;;;;100.68;43.50;;;0.80;99.90;;;;;;5088220;28;20016;-42
2022/12/03 10:59:22;;;;;;;99.95;45.10;;;0.70;99.90;;;;;;5100891;28;20020;-42
2022/12/03 11:01:49;;;;;;;108.25;45.72;;;0.70;99.90;;;;;;5109278;28;20016;-42
2022/12/03 11:04:34;;;;;;;99.20;44.10;;;0.80;99.90;;;;;;5109053;28;20032;-42
2022/12/03 11:07:02;;;;;;;102.10;47.08;;;0.80;99.90;;;;;;5109332;28;20422;-43
2022/12/03 11:09:31;;;;;;;105.60;47.20;;;0.90;99.90;;;;;;5107162;28;20036;-42
2022/12/03 11:12:04;;;;;;;98.93;45.45;;;0.90;99.90;;;;;;5085185;28;20232;-43
2022/12/03 11:14:50;;;;;;;112.25;47.22;;;0.80;99.90;;;;;;5077425;28;20118;-42
2022/12/03 11:17:49;;;;;;;104.53;43.67;;;0.70;99.90;;;;;;5079000;28;20444;-42
2022/12/03 11:20:24;;;;;;;108.43;44.17;;;0.70;99.90;;;;;;5087150;28;20031;-42
2022/12/03 11:22:51;;;;;;;102.90;45.97;;;0.70;99.90;;;;;;5091372;28;20028;-42
2022/12/03 11:25:23;;;;;;;96.00;44.10;;;0.70;99.90;;;;;;5099966;28;20028;-43
2022/12/03 11:28:10;;;;;;;103.68;46.45;;;0.70;99.90;;;;;;5106039;28;20096;-42
2022/12/03 11:30:49;;;;;;;101.22;46.08;;;0.70;99.90;;;;;;5096012;28;20019;-42
2022/12/03 11:33:30;;;;;;;104.82;44.03;;;0.80;99.90;;;;;;5100325;28;20526;-42
2022/12/03 11:36:01;;;;;;;;;;;0.70;99.90;;;;;;5100040;28;20024;-42
2022/12/03 11:38:44;;;;;;;104.97;44.35;;;0.80;99.90;;;;;;5103992;28;19956;-42
2022/12/03 11:41:28;;;;;;;100.60;45.08;;;0.80;99.90;;;;;;5096283;28;20114;-42
2022/12/03 11:43:55;;;;;;;102.93;45.85;;;0.80;99.90;;;;;;5104437;28;20546;-42
2022/12/03 11:46:42;;;;;;;99.15;44.72;;;0.80;99.90;;;;;;5099181;28;20384;-40
2022/12/03 11:49:27;;;;;;;104.47;45.83;;;0.80;99.90;;;;;;5111292;28;20023;-40
2022/12/03 11:51:53;;;;;;;103.43;44.63;;;0.80;99.90;;;;;;5098135;28;20380;-40
2022/12/03 11:54:22;;;;;;;92.70;42.47;;;0.70;99.90;;;;;;5110835;28;20053;-42
2022/12/03 11:56:48;;;;;;;102.47;44.78;;;0.70;99.90;;;;;;5110684;28;20032;-41
2022/12/03 11:59:18;;;;;;;104.90;45.45;;;0.70;99.90;;;;;;5099295;28;20011;-41
2022/12/03 12:01:44;;;;;;;93.38;42.20;;;0.80;99.90;;;;;;5103977;28;20024;-41
2022/12/03 12:04:34;;;;;;;107.38;44.67;;;0.80;99.90;;;;;;5112310;28;20093;-41
2022/12/03 12:07:00;;;;;;;97.55;43.58;;;0.80;99.90;;;;;;5088946;28;20020;-41
2022/12/03 12:10:04;;;;;;;95.88;43.10;;;0.90;99.90;;;;;;5104920;28;20016;-41
2022/12/03 12:12:44;;;;;;;99.13;43.58;;;0.80;99.90;;;;;;5028576;28;20135;-41
2022/12/03 12:15:34;;;;;;;95.32;44.70;;;0.80;99.90;;;;;;5018875;28;20041;-41
2022/12/03 12:18:37;;;;;;;96.32;44.10;;;0.80;99.90;;;;;;5082728;28;20035;-41
2022/12/03 12:21:40;;;;;;;100.03;45.15;;;0.90;99.90;;;;;;5109953;28;20548;-41
2022/12/03 12:24:45;;;;;;;89.32;42.92;;;0.90;99.90;;;;;;5101120;28;20031;-41
2022/12/03 12:27:13;;;;;;;98.30;43.92;;;0.90;99.90;;;;;;5091447;28;20354;-41
2022/12/03 12:29:41;;;;;;;100.68;42.55;;;0.90;99.90;;;;;;5085596;28;20025;-41
2022/12/03 12:32:10;;;;;;;94.32;43.22;;;0.90;99.90;;;;;;5101483;28;20024;-41
2022/12/03 12:34:39;;;;;;;95.32;42.97;;;0.90;99.90;;;;;;5110727;28;20031;-41
2022/12/03 12:37:26;;;;;;;90.32;42.67;;;0.90;99.90;;;;;;5111110;28;20285;-41
2022/12/03 12:39:55;;;;;;;102.45;42.90;;;0.90;99.90;;;;;;5110650;28;20484;-41
2022/12/03 12:42:29;;;;;;;103.15;45.20;;;0.80;99.90;;;;;;5098770;28;20093;-41
2022/12/03 12:45:17;;;;;;;98.63;46.30;;;0.80;99.90;;;;;;5108476;28;20139;-42
2022/12/03 12:48:22;;;;;;;100.68;46.60;;;0.80;99.90;;;;;;5100381;28;20028;-42
2022/12/03 12:50:52;;;;;;;95.57;42.60;;;0.80;99.90;;;;;;5100911;28;20064;-41
2022/12/03 12:53:38;;;;;;;101.47;44.72;;;0.80;99.90;;;;;;5111380;28;20024;-42
2022/12/03 12:56:25;;;;;;;102.72;44.85;;;0.80;99.90;;;;;;5110563;28;20039;-42
2022/12/03 12:58:52;;;;;;;93.15;43.08;;;0.80;99.90;;;;;;5110816;28;20538;-42
2022/12/03 13:01:27;;;;;;;95.30;43.38;;;0.80;99.90;;;;;;5110396;28;20015;-42
2022/12/03 13:03:53;;;;;;;93.45;41.70;;;0.80;99.90;;;;;;5094810;28;20032;-42
2022/12/03 13:06:25;;;;;;;98.22;45.38;;;0.80;99.90;;;;;;5102251;28;20102;-42